Time;durP1;ratioP1;P1;durP2;ratioP2;P2;SDS_P1;SDS_P2;PMS_P1;PMS_P2;Temp;Humidity;BMP_temperature;BMP_pressure;BME280_temperature;BME280_humidity;BME280_pressure;Samples;Min_cycle;Max_cycle;Signal;HPM_P1;HPM_P2
2023/10/14 00:00:33;;;;;;;5.07;3.30;;;;;;;13.51;100.00;101794.09;2056543;28;20249;-65
2023/10/14 00:01:36;;;;;;;7.70;3.53;;;;;;;13.47;100.00;101796.13;2056432;28;20440;-65
2023/10/14 00:02:37;;;;;;;6.07;3.70;;;;;;;13.49;100.00;101795.72;2056216;28;20445;-65
2023/10/14 00:03:41;;;;;;;9.20;3.20;;;;;;;13.48;100.00;101794.16;2056602;28;20921;-65
2023/10/14 00:04:42;;;;;;;3.80;2.80;;;;;;;13.37;100.00;101790.75;2063873;28;20241;-65
2023/10/14 00:05:43;;;;;;;6.30;3.53;;;;;;;13.40;100.00;101799.06;2050165;28;20432;-65
2023/10/14 00:06:44;;;;;;;6.80;3.60;;;;;;;13.36;100.00;101795.53;2055546;28;20457;-65
2023/10/14 00:07:44;;;;;;;7.90;3.90;;;;;;;13.33;100.00;101787.25;2056572;28;20185;-65
2023/10/14 00:08:48;;;;;;;6.03;3.37;;;;;;;13.22;100.00;101769.94;2057051;28;20280;-65
2023/10/14 00:09:50;;;;;;;6.00;3.80;;;;;;;13.31;100.00;101790.44;2056326;28;20217;-65
2023/10/14 00:10:50;;;;;;;7.67;3.77;;;;;;;13.29;100.00;101797.66;2056101;28;20446;-65
2023/10/14 00:11:54;;;;;;;4.87;3.10;;;;;;;13.25;100.00;101794.94;2056168;28;20451;-65
2023/10/14 00:12:55;;;;;;;7.20;3.87;;;;;;;13.25;100.00;101794.94;2056902;28;20214;-65
2023/10/14 00:13:56;;;;;;;8.03;3.50;;;;;;;13.24;100.00;101795.34;2055793;28;20431;-65
2023/10/14 00:15:03;;;;;;;5.30;3.40;;;;;;;13.05;100.00;101765.44;2063478;28;20174;-67
2023/10/14 00:16:10;;;;;;;9.13;3.60;;;;;;;13.13;100.00;101784.41;2061740;28;20415;-67
2023/10/14 00:17:18;;;;;;;10.17;3.40;;;;;;;12.94;100.00;101764.78;2050102;28;20422;-67
2023/10/14 00:18:18;;;;;;;4.30;3.03;;;;;;;12.93;100.00;101761.22;2056823;28;20873;-66
2023/10/14 00:19:21;;;;;;;8.33;3.53;;;;;;;13.12;100.00;101799.50;2056176;28;20820;-65
2023/10/14 00:20:21;;;;;;;7.13;3.50;;;;;;;13.11;100.00;101784.00;2057071;28;20222;-65
2023/10/14 00:21:23;;;;;;;7.87;3.50;;;;;;;13.06;100.00;101775.38;2056302;28;20510;-65
2023/10/14 00:22:26;;;;;;;9.30;4.17;;;;;;;13.08;100.00;101787.66;2055926;28;20206;-65
2023/10/14 00:23:26;;;;;;;7.23;3.90;;;;;;;13.06;100.00;101780.94;2056518;28;20457;-65
2023/10/14 00:24:27;;;;;;;5.67;3.67;;;;;;;13.07;100.00;101791.63;2056013;28;20480;-65
2023/10/14 00:25:27;;;;;;;6.37;3.50;;;;;;;13.06;100.00;101797.63;2055716;28;20656;-65
2023/10/14 00:26:29;;;;;;;5.13;3.17;;;;;;;13.03;100.00;101796.47;2056731;28;20224;-65
2023/10/14 00:27:30;;;;;;;6.90;3.47;;;;;;;12.91;100.00;101802.56;2056532;28;20188;-65
2023/10/14 00:28:32;;;;;;;6.63;3.60;;;;;;;12.89;100.00;101802.22;2055797;28;20430;-65
2023/10/14 00:29:32;;;;;;;5.77;3.17;;;;;;;12.84;100.00;101799.91;2056857;28;20271;-67
2023/10/14 00:30:33;;;;;;;5.10;3.40;;;;;;;12.88;100.00;101810.97;2056663;28;20455;-66
2023/10/14 00:31:34;;;;;;;6.27;3.77;;;;;;;12.87;100.00;101796.28;2056611;28;20275;-65
2023/10/14 00:32:34;;;;;;;5.23;3.13;;;;;;;12.88;100.00;101800.66;2056216;28;20213;-65
2023/10/14 00:33:35;;;;;;;4.30;2.97;;;;;;;12.90;100.00;101797.44;2056218;28;20243;-65
2023/10/14 00:34:36;;;;;;;5.13;3.53;;;;;;;12.88;100.00;101785.94;2056105;28;20343;-65
2023/10/14 00:35:39;;;;;;;5.07;3.07;;;;;;;12.88;100.00;101788.72;2055889;28;20737;-65
2023/10/14 00:36:40;;;;;;;6.43;3.27;;;;;;;12.89;100.00;101791.09;2056348;28;20179;-65
2023/10/14 00:37:41;;;;;;;6.00;3.43;;;;;;;12.82;100.00;101777.25;2056833;28;20422;-65
2023/10/14 00:38:45;;;;;;;6.93;3.57;;;;;;;12.89;100.00;101788.31;2055634;28;20472;-65
2023/10/14 00:39:54;;;;;;;5.97;4.13;;;;;;;12.90;100.00;101780.72;2056270;28;20229;-65
2023/10/14 00:40:59;;;;;;;5.10;3.30;;;;;;;12.93;100.00;101783.47;2056338;28;20925;-66
2023/10/14 00:41:59;;;;;;;6.03;3.50;;;;;;;12.91;100.00;101787.91;2055982;28;20468;-66
2023/10/14 00:43:04;;;;;;;10.77;3.63;;;;;;;12.92;100.00;101783.91;2056244;28;20461;-67
2023/10/14 00:44:04;;;;;;;4.90;2.97;;;;;;;12.94;100.00;101785.06;2056342;28;20205;-66
2023/10/14 00:45:11;;;;;;;6.57;3.63;;;;;;;12.95;100.00;101783.84;2056123;28;20544;-67
2023/10/14 00:46:14;;;;;;;5.50;3.73;;;;;;;12.64;100.00;101732.25;2055969;28;20197;-66
2023/10/14 00:47:15;;;;;;;4.63;3.20;;;;;;;12.97;100.00;101783.47;2056138;28;20437;-65
2023/10/14 00:48:20;;;;;;;5.93;3.30;;;;;;;12.97;100.00;101783.47;2056201;28;20425;-65
2023/10/14 00:49:34;;;;;;;8.97;3.37;;;;;;;12.95;100.00;101777.47;2055942;28;20480;-65
2023/10/14 00:50:34;;;;;;;8.30;3.80;;;;;;;12.64;100.00;101735.03;2055995;28;20413;-64
2023/10/14 00:51:34;;;;;;;6.47;3.73;;;;;;;12.91;100.00;101771.97;2063390;28;20425;-63
2023/10/14 00:52:35;;;;;;;4.60;3.17;;;;;;;12.95;100.00;101783.03;2063478;28;20192;-63
2023/10/14 00:53:39;;;;;;;7.83;3.43;;;;;;;12.96;100.00;101770.75;2056187;28;20203;-63
2023/10/14 00:55:46;;;;;;;6.77;3.63;;;;;;;12.99;100.00;101769.91;2055650;28;20484;-66
2023/10/14 00:56:47;;;;;;;11.70;4.00;;;;;;;12.99;100.00;101772.69;2055909;28;20449;-66
2023/10/14 00:57:54;;;;;;;6.43;3.50;;;;;;;13.02;100.00;101771.84;2055996;28;20453;-64
2023/10/14 00:58:58;;;;;;;7.60;3.60;;;;;;;13.03;100.00;101767.84;2056120;28;20201;-63
2023/10/14 00:59:59;;;;;;;8.87;3.63;;;;;;;13.03;100.00;101765.88;2056027;28;20478;-63
2023/10/14 01:01:00;;;;;;;6.47;3.00;;;;;;;13.05;100.00;101762.66;2055831;28;20467;-63
2023/10/14 01:02:02;;;;;;;7.80;3.47;;;;;;;13.05;100.00;101760.66;2055873;28;20428;-63
2023/10/14 01:03:07;;;;;;;5.43;3.37;;;;;;;13.07;100.00;101768.59;2056751;28;20204;-63
2023/10/14 01:04:20;;;;;;;6.17;2.93;;;;;;;13.06;100.00;101773.34;2048765;28;20399;-63
2023/10/14 01:05:21;;;;;;;4.77;3.13;;;;;;;13.07;100.00;101771.38;2048259;29;20406;-63
2023/10/14 01:07:23;;;;;;;6.10;3.30;;;;;;;13.07;100.00;101761.00;2055359;28;20241;-67
2023/10/14 01:08:25;;;;;;;5.53;3.37;;;;;;;12.92;100.00;101737.38;2056067;28;20202;-66
2023/10/14 01:10:45;;;;;;;7.00;3.37;;;;;;;13.11;100.00;101758.19;2055948;28;20448;-66
2023/10/14 01:11:45;;;;;;;6.40;3.50;;;;;;;13.10;100.00;101759.38;2056308;28;20468;-66
2023/10/14 01:12:53;;;;;;;7.00;3.60;;;;;;;13.06;100.00;101756.66;2055800;28;20285;-66
2023/10/14 01:14:04;;;;;;;6.30;3.70;;;;;;;13.06;100.00;101744.75;2052793;28;20184;-64
2023/10/14 01:15:20;;;;;;;6.37;3.60;;;;;;;13.07;100.00;101747.09;2051509;28;20476;-63
2023/10/14 01:16:24;;;;;;;7.33;4.30;;;;;;;13.04;100.00;101747.16;2056043;28;20459;-63
2023/10/14 01:17:29;;;;;;;7.43;3.23;;;;;;;13.05;100.00;101745.94;2055902;28;20454;-63
2023/10/14 01:18:34;;;;;;;6.30;3.47;;;;;;;13.05;100.00;101743.97;2056104;28;20544;-63
2023/10/14 01:19:35;;;;;;;6.63;4.10;;;;;;;13.08;100.00;101750.69;2055756;28;20485;-63
2023/10/14 01:20:37;;;;;;;5.37;3.70;;;;;;;13.09;100.00;101749.47;2056003;28;20437;-63
2023/10/14 01:21:41;;;;;;;4.20;3.43;;;;;;;13.09;100.00;101743.91;2060586;28;20531;-63
2023/10/14 01:23:07;;;;;;;6.43;3.83;;;;;;;13.07;100.00;101749.88;2056237;28;21028;-65
2023/10/14 01:24:15;;;;;;;7.57;3.80;;;;;;;13.11;100.00;101750.63;2056073;28;20504;-65
2023/10/14 01:25:15;;;;;;;6.20;3.57;;;;;;;13.12;100.00;101749.41;2055832;28;20414;-65
2023/10/14 01:26:16;;;;;;;9.40;3.70;;;;;;;13.13;100.00;101750.19;2055567;28;20436;-65
2023/10/14 01:27:17;;;;;;;5.87;3.60;;;;;;;13.15;100.00;101742.19;2056464;28;20198;-65
2023/10/14 01:28:22;;;;;;;5.97;3.47;;;;;;;13.16;100.00;101749.38;2055820;28;20532;-65
2023/10/14 01:29:30;;;;;;;5.00;3.60;;;;;;;13.17;100.00;101757.28;2055840;28;20677;-65
2023/10/14 01:30:32;;;;;;;6.10;3.77;;;;;;;13.17;100.00;101754.50;2056226;28;20535;-65
2023/10/14 01:31:54;;;;;;;4.77;3.50;;;;;;;13.17;100.00;101754.50;2056032;28;20558;-65
2023/10/14 01:33:07;;;;;;;8.37;4.03;;;;;;;13.18;100.00;101752.50;2056003;28;20576;-64
2023/10/14 01:34:08;;;;;;;5.53;3.83;;;;;;;13.15;100.00;101748.56;2055851;28;20424;-65
2023/10/14 01:35:31;;;;;;;8.70;3.83;;;;;;;13.14;100.00;101747.00;2055707;28;20446;-65
2023/10/14 01:36:34;;;;;;;6.93;3.67;;;;;;;13.13;100.00;101748.22;2056222;28;20695;-65
2023/10/14 01:37:38;;;;;;;6.43;3.90;;;;;;;12.89;100.00;101715.97;2056485;28;20409;-65
2023/10/14 01:38:39;;;;;;;8.00;3.47;;;;;;;13.09;100.00;101747.47;2055634;28;20482;-65
2023/10/14 01:39:46;;;;;;;11.67;4.27;;;;;;;13.09;100.00;101743.91;2054944;28;20246;-65
2023/10/14 01:41:47;;;;;;;7.70;3.43;;;;;;;13.08;100.00;101751.47;2056052;28;20457;-65
2023/10/14 01:42:48;;;;;;;6.13;3.43;;;;;;;13.06;100.00;101739.97;2055818;28;20256;-65
2023/10/14 01:43:49;;;;;;;6.53;3.27;;;;;;;13.06;100.00;101745.53;2055928;28;20202;-64
2023/10/14 01:44:53;;;;;;;5.03;3.77;;;;;;;13.04;100.00;101745.19;2056103;28;20417;-64
2023/10/14 01:46:57;;;;;;;5.57;3.63;;;;;;;12.97;100.00;101742.50;2055768;28;20421;-63
2023/10/14 01:49:16;;;;;;;6.17;2.80;;;;;;;12.95;100.00;101739.31;2048087;29;20171;-63
2023/10/14 01:50:16;;;;;;;5.53;3.40;;;;;;;12.94;100.00;101736.97;2047840;29;20414;-63
2023/10/14 01:51:17;;;;;;;5.87;4.03;;;;;;;12.94;100.00;101748.88;2055308;28;20445;-63
2023/10/14 01:52:19;;;;;;;6.97;3.67;;;;;;;12.92;100.00;101740.16;2055647;28;20205;-63
2023/10/14 01:53:23;;;;;;;12.30;3.30;;;;;;;12.91;100.00;101730.25;2055806;28;20581;-63
2023/10/14 01:54:24;;;;;;;8.80;3.43;;;;;;;12.86;100.00;101732.72;2055773;28;20508;-64
2023/10/14 01:55:25;;;;;;;6.97;3.80;;;;;;;12.88;100.00;101739.44;2055297;28;20587;-64
2023/10/14 01:56:27;;;;;;;7.57;3.90;;;;;;;12.87;100.00;101737.06;2055765;28;20206;-63
2023/10/14 01:57:27;;;;;;;6.63;3.43;;;;;;;12.84;100.00;101737.91;2055868;28;20424;-63
2023/10/14 01:58:36;;;;;;;6.00;3.73;;;;;;;12.84;100.00;101743.47;2055586;28;20448;-64
2023/10/14 01:59:39;;;;;;;4.13;2.53;;;;;;;12.80;100.00;101732.41;2056311;28;20234;-63
2023/10/14 02:00:46;;;;;;;6.10;3.57;;;;;;;12.74;100.00;101730.50;2056378;28;20512;-63
2023/10/14 02:01:47;;;;;;;5.60;3.30;;;;;;;12.75;100.00;101738.44;2056179;28;20429;-65
2023/10/14 02:02:48;;;;;;;7.33;3.87;;;;;;;12.75;100.00;101740.44;2056187;28;20444;-65
2023/10/14 02:03:52;;;;;;;4.63;3.47;;;;;;;12.71;100.00;101737.69;2055957;28;20456;-64
2023/10/14 02:04:56;;;;;;;5.53;4.03;;;;;;;12.71;100.00;101736.94;2055536;28;20736;-63
2023/10/14 02:05:58;;;;;;;5.23;3.10;;;;;;;12.69;100.00;101739.31;2055494;28;20457;-65
2023/10/14 02:07:17;;;;;;;4.90;3.37;;;;;;;12.66;100.00;101738.16;2055795;28;20913;-66
2023/10/14 02:08:23;;;;;;;5.90;3.77;;;;;;;12.66;100.00;101735.38;2055190;28;20451;-66
2023/10/14 02:09:29;;;;;;;7.03;3.97;;;;;;;12.63;100.00;101733.47;2054982;28;20471;-66
2023/10/14 02:10:35;;;;;;;5.57;2.90;;;;;;;12.57;100.00;101732.38;2056102;28;20945;-66
2023/10/14 02:11:36;;;;;;;5.53;3.27;;;;;;;12.55;100.00;101731.97;2055823;28;20491;-67
2023/10/14 02:12:36;;;;;;;10.60;3.87;;;;;;;12.54;100.00;101730.41;2055346;28;20472;-65
2023/10/14 02:13:37;;;;;;;6.10;3.67;;;;;;;12.55;100.00;101726.41;2055764;28;20636;-66
2023/10/14 02:14:53;;;;;;;8.23;3.77;;;;;;;12.25;100.00;101681.97;2055858;28;20185;-66
2023/10/14 02:15:59;;;;;;;5.83;3.30;;;;;;;12.43;100.00;101710.31;2055117;28;20253;-66
2023/10/14 02:17:00;;;;;;;6.83;3.33;;;;;;;12.55;100.00;101740.31;2055564;28;20433;-66
2023/10/14 02:18:02;;;;;;;6.53;3.70;;;;;;;12.56;100.00;101732.78;2056500;28;20581;-66
2023/10/14 02:19:17;;;;;;;8.73;3.80;;;;;;;12.50;100.00;101723.34;2055147;28;20504;-66
2023/10/14 02:20:27;;;;;;;6.60;3.77;;;;;;;12.57;100.00;101729.59;2056398;28;20917;-65
2023/10/14 02:21:33;;;;;;;5.90;3.57;;;;;;;12.59;100.00;101729.94;2056281;28;20413;-65
2023/10/14 02:22:38;;;;;;;6.40;3.70;;;;;;;12.59;100.00;101729.94;2055835;28;20428;-65
2023/10/14 02:23:46;;;;;;;5.47;3.60;;;;;;;12.61;100.00;101727.53;2055875;28;20942;-65
2023/10/14 02:24:48;;;;;;;5.80;3.67;;;;;;;12.61;100.00;101727.53;2054939;28;20459;-66
2023/10/14 02:25:55;;;;;;;6.13;3.70;;;;;;;12.61;100.00;101730.31;2054751;28;20549;-66
2023/10/14 02:26:57;;;;;;;5.07;3.70;;;;;;;12.62;100.00;101731.91;2053950;28;20506;-65
2023/10/14 02:27:58;;;;;;;6.60;3.53;;;;;;;12.44;100.00;101692.44;2055675;28;20450;-64
2023/10/14 02:28:58;;;;;;;5.07;3.93;;;;;;;12.36;100.00;101690.97;2055545;28;20450;-64
2023/10/14 02:30:00;;;;;;;4.67;3.43;;;;;;;12.63;100.00;101730.69;2063423;28;20180;-63
2023/10/14 02:31:02;;;;;;;7.57;4.13;;;;;;;12.64;100.00;101726.69;2062889;28;20201;-63
2023/10/14 02:32:03;;;;;;;6.43;3.37;;;;;;;12.64;100.00;101720.31;2055325;28;20438;-66
2023/10/14 02:33:03;;;;;;;7.67;4.03;;;;;;;12.62;100.00;101729.13;2055608;28;20497;-66
2023/10/14 02:34:08;;;;;;;10.60;4.37;;;;;;;12.62;100.00;101719.97;2055505;28;20197;-66
2023/10/14 02:35:08;;;;;;;14.50;3.77;;;;;;;12.59;100.00;101715.25;2055375;28;20583;-65
2023/10/14 02:36:14;;;;;;;8.73;4.07;;;;;;;12.60;100.00;101719.63;2055186;28;20449;-66
2023/10/14 02:37:14;;;;;;;9.90;4.60;;;;;;;12.60;100.00;101712.03;2055378;28;20721;-64
2023/10/14 02:38:17;;;;;;;8.90;4.10;;;;;;;12.61;100.00;101712.84;2062778;28;21000;-63
2023/10/14 02:39:25;;;;;;;10.17;5.03;;;;;;;12.62;100.00;101706.88;2062767;28;20198;-63
2023/10/14 02:40:26;;;;;;;6.13;3.83;;;;;;;12.63;100.00;101716.78;2055512;28;20507;-63
2023/10/14 02:41:26;;;;;;;5.03;3.30;;;;;;;12.62;100.00;101712.44;2055470;28;20428;-63
2023/10/14 02:42:27;;;;;;;7.03;3.67;;;;;;;12.64;100.00;101717.53;2055287;28;20181;-63
2023/10/14 02:43:29;;;;;;;5.97;3.87;;;;;;;12.64;100.00;101720.31;2056179;28;20185;-67
2023/10/14 02:44:32;;;;;;;4.83;3.30;;;;;;;12.62;100.00;101714.41;2056062;28;20270;-66
2023/10/14 02:45:37;;;;;;;5.43;3.70;;;;;;;12.58;100.00;101716.44;2056344;28;20454;-66
2023/10/14 02:46:46;;;;;;;7.03;3.97;;;;;;;12.55;100.00;101718.06;2057390;28;20446;-66
2023/10/14 02:47:48;;;;;;;7.50;4.00;;;;;;;12.57;100.00;101718.47;2056966;28;20443;-66
2023/10/14 02:49:02;;;;;;;6.20;3.50;;;;;;;12.59;100.00;101712.47;2057078;28;20447;-66
2023/10/14 02:50:08;;;;;;;7.73;3.23;;;;;;;12.58;100.00;101717.25;2057407;28;20441;-66
2023/10/14 02:51:08;;;;;;;10.87;4.03;;;;;;;12.60;100.00;101714.06;2056962;28;20959;-66
2023/10/14 02:52:11;;;;;;;12.43;3.87;;;;;;;12.57;100.00;101717.66;2056660;28;20766;-66
2023/10/14 02:53:12;;;;;;;8.80;4.63;;;;;;;12.56;100.00;101713.31;2057260;28;20187;-66
2023/10/14 02:54:27;;;;;;;6.77;3.97;;;;;;;12.58;100.00;101714.47;2057055;28;20458;-66
2023/10/14 02:55:50;;;;;;;9.37;4.23;;;;;;;12.55;100.00;101714.53;2056271;28;20458;-66
2023/10/14 02:57:52;;;;;;;10.17;4.60;;;;;;;12.33;100.00;101686.22;2056940;28;20449;-66
2023/10/14 02:58:54;;;;;;;7.17;3.67;;;;;;;12.60;100.00;101716.84;2056802;28;20847;-66
2023/10/14 02:59:56;;;;;;;8.87;4.03;;;;;;;12.60;100.00;101714.81;2056958;28;20202;-66
2023/10/14 03:00:59;;;;;;;6.37;4.40;;;;;;;12.59;100.00;101706.91;2056845;28;20493;-66
2023/10/14 03:03:15;;;;;;;9.40;4.27;;;;;;;12.26;100.00;101660.53;2057091;28;20402;-66
2023/10/14 03:04:24;;;;;;;11.13;4.47;;;;;;;12.60;100.00;101720.38;2056826;28;20455;-66
2023/10/14 03:05:36;;;;;;;7.20;3.90;;;;;;;12.61;100.00;101719.19;2056327;28;20468;-64
2023/10/14 03:06:46;;;;;;;12.23;3.80;;;;;;;12.62;100.00;101720.78;2056816;28;20726;-66
2023/10/14 03:07:50;;;;;;;11.43;4.23;;;;;;;12.49;100.00;101697.50;2057086;28;20417;-63
2023/10/14 03:08:58;;;;;;;6.43;3.90;;;;;;;12.63;100.00;101714.00;2057479;28;20426;-64
2023/10/14 03:10:11;;;;;;;8.43;4.07;;;;;;;12.56;100.00;101708.53;2057547;28;20403;-63
2023/10/14 03:11:19;;;;;;;7.93;4.07;;;;;;;12.58;100.00;101710.88;2056871;28;20427;-64
2023/10/14 03:12:21;;;;;;;10.20;4.27;;;;;;;12.61;100.00;101719.19;2056711;28;20400;-63
2023/10/14 03:13:22;;;;;;;6.30;3.90;;;;;;;12.62;100.00;101717.19;2057321;28;20451;-63
2023/10/14 03:14:24;;;;;;;7.03;4.13;;;;;;;12.60;100.00;101714.81;2057203;28;20569;-63
2023/10/14 03:15:26;;;;;;;11.20;4.00;;;;;;;12.62;100.00;101712.44;2056159;28;20535;-63
2023/10/14 03:16:26;;;;;;;6.77;4.57;;;;;;;12.61;100.00;101712.84;2056338;28;20422;-63
2023/10/14 03:17:40;;;;;;;5.97;4.30;;;;;;;12.62;100.00;101714.41;2057065;28;20444;-63
2023/10/14 03:18:41;;;;;;;6.57;4.27;;;;;;;12.60;100.00;101714.81;2056855;28;20719;-63
2023/10/14 03:19:41;;;;;;;7.20;4.27;;;;;;;12.59;100.00;101706.91;2056702;28;20917;-63
2023/10/14 03:20:58;;;;;;;6.37;4.30;;;;;;;12.58;100.00;101706.13;2056733;28;20184;-63
2023/10/14 03:21:58;;;;;;;6.77;4.20;;;;;;;12.57;100.00;101714.88;2056488;28;20380;-64
2023/10/14 03:23:09;;;;;;;7.93;4.17;;;;;;;12.57;100.00;101712.09;2057116;28;20427;-63
2023/10/14 03:24:10;;;;;;;7.10;4.07;;;;;;;12.56;100.00;101710.53;2056874;28;20168;-64
2023/10/14 03:25:14;;;;;;;6.67;3.73;;;;;;;12.19;100.00;101649.53;2056376;28;20795;-64
2023/10/14 03:26:19;;;;;;;6.17;3.53;;;;;;;12.55;100.00;101717.31;2056422;28;20434;-63
2023/10/14 03:27:20;;;;;;;7.23;4.03;;;;;;;12.54;100.00;101713.72;2057283;28;20426;-64
2023/10/14 03:28:24;;;;;;;8.93;4.00;;;;;;;12.52;100.00;101712.56;2057082;28;20480;-63
2023/10/14 03:29:25;;;;;;;5.20;3.67;;;;;;;12.51;100.00;101711.78;2056823;28;20642;-63
2023/10/14 03:30:27;;;;;;;7.13;3.60;;;;;;;12.49;100.00;101714.19;2056447;28;20836;-63
2023/10/14 03:31:27;;;;;;;6.13;3.70;;;;;;;12.48;100.00;101717.38;2056602;28;20454;-63
2023/10/14 03:32:33;;;;;;;7.87;4.13;;;;;;;12.48;100.00;101709.06;2056312;28;20452;-63
2023/10/14 03:33:43;;;;;;;7.23;4.00;;;;;;;12.45;100.00;101710.69;2056829;28;20247;-63
2023/10/14 03:34:45;;;;;;;9.73;3.43;;;;;;;12.47;100.00;101713.03;2056550;28;20457;-66
2023/10/14 03:35:57;;;;;;;6.20;3.83;;;;;;;12.46;100.00;101715.03;2056150;28;20426;-66
2023/10/14 03:37:00;;;;;;;7.37;4.10;;;;;;;12.35;100.00;101699.72;2056487;28;20825;-66
2023/10/14 03:38:07;;;;;;;5.97;4.37;;;;;;;12.43;100.00;101715.09;2056561;28;20545;-67
2023/10/14 03:39:21;;;;;;;7.27;4.43;;;;;;;12.37;100.00;101722.31;2056726;28;20396;-66
2023/10/14 03:41:42;;;;;;;9.23;4.50;;;;;;;12.31;100.00;101722.00;2056947;28;20455;-66
2023/10/14 03:42:52;;;;;;;9.37;4.23;;;;;;;12.27;100.00;101721.28;2056133;28;20706;-66
2023/10/14 03:44:59;;;;;;;11.30;4.17;;;;;;;12.21;100.00;101720.16;2056162;28;20408;-66
2023/10/14 03:46:04;;;;;;;12.17;4.43;;;;;;;12.21;100.00;101714.59;2055967;28;20659;-66
2023/10/14 03:47:05;;;;;;;8.20;4.90;;;;;;;12.22;100.00;101715.38;2056771;28;20181;-66
2023/10/14 03:48:08;;;;;;;7.27;4.40;;;;;;;12.21;100.00;101711.81;2057330;28;20425;-66
2023/10/14 03:49:12;;;;;;;8.43;4.33;;;;;;;12.20;100.00;101713.00;2057146;28;20194;-66
2023/10/14 03:50:14;;;;;;;8.47;4.73;;;;;;;12.21;100.00;101716.59;2056276;28;21030;-66
2023/10/14 03:51:25;;;;;;;7.77;4.53;;;;;;;12.20;100.00;101715.00;2056953;28;20445;-66
2023/10/14 03:52:26;;;;;;;6.83;4.10;;;;;;;12.15;100.00;101721.81;2056379;28;20447;-66
2023/10/14 03:53:31;;;;;;;7.67;4.27;;;;;;;12.16;100.00;101715.06;2056569;28;20515;-66
2023/10/14 03:54:41;;;;;;;11.73;4.03;;;;;;;12.13;100.00;101715.88;2056561;28;21273;-66
2023/10/14 03:55:42;;;;;;;7.60;3.47;;;;;;;12.11;100.00;101709.97;2056109;28;20464;-66
2023/10/14 03:56:45;;;;;;;6.13;3.80;;;;;;;11.94;100.00;101676.84;2056177;28;20446;-66
2023/10/14 03:57:46;;;;;;;7.97;4.27;;;;;;;12.14;100.00;101711.91;2056764;28;20485;-66
2023/10/14 03:58:46;;;;;;;11.67;4.90;;;;;;;12.15;100.00;101707.91;2056049;28;20947;-66
2023/10/14 03:59:47;;;;;;;5.77;4.17;;;;;;;12.15;100.00;101710.69;2056379;28;20218;-67
2023/10/14 04:00:49;;;;;;;7.13;4.37;;;;;;;12.16;100.00;101712.28;2057027;28;20183;-67
2023/10/14 04:02:11;;;;;;;9.73;4.63;;;;;;;12.16;100.00;101709.50;2056243;28;20443;-66
2023/10/14 04:03:12;;;;;;;9.27;4.47;;;;;;;12.17;100.00;101715.84;2048519;28;20468;-68
2023/10/14 04:04:18;;;;;;;7.23;4.60;;;;;;;12.06;100.00;101704.06;2057197;28;20575;-66
2023/10/14 04:05:19;;;;;;;10.03;5.60;;;;;;;12.14;100.00;101705.56;2056758;28;20185;-66
2023/10/14 04:06:20;;;;;;;8.10;4.73;;;;;;;12.17;100.00;101713.84;2056513;28;20494;-67
2023/10/14 04:07:28;;;;;;;7.53;4.70;;;;;;;12.19;100.00;101707.88;2056440;28;20219;-66
2023/10/14 04:08:31;;;;;;;7.20;4.27;;;;;;;12.21;100.00;101713.81;2056546;28;20204;-66
2023/10/14 04:10:43;;;;;;;9.40;5.37;;;;;;;12.22;100.00;101707.03;2056499;28;20441;-67
2023/10/14 04:11:47;;;;;;;7.30;3.90;;;;;;;12.23;100.00;101719.72;2056482;28;20478;-67
2023/10/14 04:12:53;;;;;;;6.50;4.60;;;;;;;12.24;100.00;101721.31;2056691;28;20594;-67
2023/10/14 04:14:04;;;;;;;9.73;4.93;;;;;;;12.23;100.00;101714.97;2055745;28;20539;-67
2023/10/14 04:15:07;;;;;;;8.13;4.70;;;;;;;12.23;100.00;101716.94;2056316;28;20448;-66
2023/10/14 04:16:15;;;;;;;9.17;4.77;;;;;;;12.23;100.00;101719.72;2055935;28;20452;-66
2023/10/14 04:17:20;;;;;;;7.03;4.67;;;;;;;11.96;100.00;101672.47;2056077;28;21063;-66
2023/10/14 04:18:26;;;;;;;8.77;4.37;;;;;;;12.19;100.00;101707.88;2056265;28;20186;-66
2023/10/14 04:19:44;;;;;;;8.23;3.97;;;;;;;12.25;100.00;101717.34;2056253;28;20422;-66
2023/10/14 04:20:46;;;;;;;7.00;4.37;;;;;;;12.23;100.00;101709.41;2056315;28;20457;-66
2023/10/14 04:21:54;;;;;;;8.30;4.23;;;;;;;12.24;100.00;101710.97;2060045;28;20837;-66
2023/10/14 04:22:54;;;;;;;6.97;4.10;;;;;;;12.24;100.00;101716.53;2056505;28;20704;-66
2023/10/14 04:25:56;;;;;;;6.97;4.33;;;;;;;12.14;100.00;101702.78;2054495;28;26424;-66
2023/10/14 04:26:48;;;;;;;8.13;4.70;;;;;;;12.19;100.00;101719.00;2052362;28;20531;-66
2023/10/14 04:28:54;;;;;;;8.27;4.00;;;;;;;12.14;100.00;101714.69;2056073;28;20954;-64
2023/10/14 04:30:10;;;;;;;7.00;4.13;;;;;;;12.11;100.00;101712.75;2056161;28;20420;-63
2023/10/14 04:31:16;;;;;;;10.17;5.00;;;;;;;12.12;100.00;101714.31;2056089;28;21842;-63
2023/10/14 04:32:27;;;;;;;7.53;4.47;;;;;;;12.11;100.00;101715.53;2055971;28;20403;-63
2023/10/14 04:33:35;;;;;;;8.37;4.80;;;;;;;11.94;100.00;101693.53;2056295;28;20473;-63
2023/10/14 04:34:35;;;;;;;10.37;4.13;;;;;;;12.06;100.00;101716.00;2056172;28;20422;-63
2023/10/14 04:35:39;;;;;;;7.97;5.07;;;;;;;12.05;100.00;101719.94;2056132;28;21011;-64
2023/10/14 04:36:53;;;;;;;7.83;4.23;;;;;;;12.06;100.00;101712.41;2055765;28;20655;-66
2023/10/14 04:37:55;;;;;;;5.20;3.90;;;;;;;12.07;100.00;101723.13;2055939;28;20430;-66
2023/10/14 04:39:14;;;;;;;8.93;4.57;;;;;;;12.06;100.00;101716.00;2056448;28;20420;-66
2023/10/14 04:40:19;;;;;;;5.93;3.97;;;;;;;12.07;100.00;101714.78;2056248;28;20470;-66
2023/10/14 04:41:24;;;;;;;6.53;3.90;;;;;;;12.07;100.00;101713.97;2056178;28;20530;-66
2023/10/14 04:42:37;;;;;;;9.53;4.73;;;;;;;11.85;100.00;101685.69;2055474;28;20622;-66
2023/10/14 04:44:55;;;;;;;10.60;5.03;;;;;;;12.05;100.00;101724.72;2056093;28;20416;-66
2023/10/14 04:45:57;;;;;;;7.67;5.00;;;;;;;12.01;100.00;101718.44;2055907;28;20412;-66
2023/10/14 04:47:01;;;;;;;7.40;4.93;;;;;;;12.06;100.00;101720.75;2056816;28;21148;-66
2023/10/14 04:48:04;;;;;;;7.20;4.40;;;;;;;12.04;100.00;101709.28;2056864;28;20423;-66
2023/10/14 04:49:08;;;;;;;7.33;4.43;;;;;;;12.06;100.00;101718.78;2056211;28;20797;-66
2023/10/14 04:50:23;;;;;;;8.03;4.80;;;;;;;12.08;100.00;101723.88;2056100;28;20513;-66
2023/10/14 04:51:30;;;;;;;6.23;4.20;;;;;;;11.88;100.00;101684.84;2056202;28;20521;-66
2023/10/14 04:52:35;;;;;;;9.87;4.50;;;;;;;12.10;100.00;101725.03;2056146;28;20433;-66
2023/10/14 04:53:36;;;;;;;8.03;4.87;;;;;;;12.10;100.00;101713.16;2056260;28;20444;-66
2023/10/14 04:54:51;;;;;;;6.87;5.03;;;;;;;12.11;100.00;101715.53;2056262;28;20499;-66
2023/10/14 04:55:51;;;;;;;10.90;5.50;;;;;;;12.12;100.00;101711.53;2055730;28;20642;-66
2023/10/14 04:56:57;;;;;;;10.20;5.73;;;;;;;12.14;100.00;101711.13;2054980;28;20477;-66
2023/10/14 04:58:23;;;;;;;7.67;4.53;;;;;;;11.79;100.00;101658.78;2056408;28;20197;-66
2023/10/14 04:59:24;;;;;;;9.63;5.77;;;;;;;12.14;100.00;101709.13;2056234;28;20489;-66
2023/10/14 05:00:32;;;;;;;9.43;5.20;;;;;;;12.15;100.00;101707.13;2056429;28;20448;-66
2023/10/14 05:01:33;;;;;;;7.83;5.20;;;;;;;12.16;100.00;101712.28;2056060;28;20484;-66
2023/10/14 05:02:37;;;;;;;9.03;4.77;;;;;;;12.09;100.00;101700.47;2055722;28;20456;-66
2023/10/14 05:03:38;;;;;;;8.23;4.70;;;;;;;12.16;100.00;101703.94;2055967;28;20535;-66
2023/10/14 05:04:41;;;;;;;7.50;5.07;;;;;;;12.18;100.00;101709.88;2055985;28;20463;-66
2023/10/14 05:07:05;;;;;;;7.93;5.23;;;;;;;12.21;100.00;101713.81;2056238;28;20443;-65
2023/10/14 05:08:06;;;;;;;7.47;5.10;;;;;;;12.22;100.00;101712.59;2055766;28;20417;-63
2023/10/14 05:09:25;;;;;;;9.63;5.17;;;;;;;12.22;100.00;101707.03;2055309;28;20509;-66
2023/10/14 05:10:28;;;;;;;6.50;4.43;;;;;;;12.22;100.00;101710.63;2055609;28;20453;-66
2023/10/14 05:11:35;;;;;;;7.30;5.03;;;;;;;12.24;100.00;101707.44;2056002;28;20937;-66
2023/10/14 05:12:43;;;;;;;7.10;4.70;;;;;;;12.24;100.00;101704.66;2055566;28;20429;-67
2023/10/14 05:13:46;;;;;;;8.30;5.17;;;;;;;12.24;100.00;101713.75;2055795;28;20424;-66
2023/10/14 05:14:46;;;;;;;5.97;4.50;;;;;;;12.25;100.00;101709.00;2055804;28;20430;-66